Time;durP1;ratioP1;P1;durP2;ratioP2;P2;SDS_P1;SDS_P2;PMS_P1;PMS_P2;Temp;Humidity;BMP_temperature;BMP_pressure;BME280_temperature;BME280_humidity;BME280_pressure;Samples;Min_cycle;Max_cycle;Signal;HPM_P1;HPM_P2
2023/08/29 00:00:26;;;;;;;2.78;2.00;;;14.40;99.90;;;;;;5079871;28;20081;-68
2023/08/29 00:02:53;;;;;;;2.35;1.88;;;14.40;99.90;;;;;;5060595;28;20068;-68
2023/08/29 00:05:19;;;;;;;3.92;2.10;;;14.30;99.90;;;;;;5061219;28;20044;-68
2023/08/29 00:07:45;;;;;;;3.97;2.53;;;14.30;99.90;;;;;;5044664;28;20064;-67
2023/08/29 00:10:11;;;;;;;2.42;2.20;;;14.40;99.90;;;;;;5078511;28;20049;-68
2023/08/29 00:12:38;;;;;;;2.83;2.28;;;14.40;99.90;;;;;;5061769;28;20130;-68
2023/08/29 00:15:05;;;;;;;4.43;2.00;;;14.40;99.90;;;;;;5059841;28;20040;-68
2023/08/29 00:17:31;;;;;;;2.63;2.17;;;14.30;99.90;;;;;;5079453;28;20051;-68
2023/08/29 00:19:57;;;;;;;2.58;2.33;;;14.30;99.90;;;;;;5059741;28;20453;-68
2023/08/29 00:22:22;;;;;;;2.10;1.90;;;14.20;99.90;;;;;;5079218;28;20048;-68
2023/08/29 00:24:52;;;;;;;3.42;2.40;;;14.20;99.90;;;;;;5058639;28;20132;-67
2023/08/29 00:27:19;;;;;;;3.55;2.08;;;14.20;99.90;;;;;;5059524;28;20101;-68
2023/08/29 00:29:45;;;;;;;2.88;2.13;;;14.20;99.90;;;;;;5044200;28;20064;-68
2023/08/29 00:32:11;;;;;;;3.28;2.50;;;14.20;99.90;;;;;;5059002;28;20052;-68
2023/08/29 00:34:37;;;;;;;4.05;2.47;;;14.10;99.90;;;;;;5060427;28;20130;-68
2023/08/29 00:37:03;;;;;;;5.85;2.60;;;14.00;99.90;;;;;;5077191;28;20079;-68
2023/08/29 00:39:29;;;;;;;3.40;2.13;;;14.00;99.90;;;;;;5078545;28;20123;-67
2023/08/29 00:41:55;;;;;;;2.17;1.98;;;14.00;99.90;;;;;;5043622;28;20083;-68
2023/08/29 00:44:21;;;;;;;3.30;2.03;;;14.00;99.90;;;;;;5043180;28;20411;-69
2023/08/29 00:46:47;;;;;;;2.88;2.30;;;14.00;99.90;;;;;;5078990;28;20044;-68
2023/08/29 00:49:18;;;;;;;2.45;1.70;;;14.00;99.90;;;;;;5077201;28;20052;-68
2023/08/29 00:51:45;;;;;;;2.80;2.00;;;13.90;99.90;;;;;;5078547;28;20084;-68
2023/08/29 00:54:15;;;;;;;4.85;1.92;;;13.90;99.90;;;;;;5042906;28;20122;-68
2023/08/29 00:56:42;;;;;;;2.40;1.90;;;13.90;99.90;;;;;;5060204;28;20040;-69
2023/08/29 00:59:08;;;;;;;2.63;2.25;;;13.90;99.90;;;;;;5060133;28;20124;-68
2023/08/29 01:01:35;;;;;;;3.85;2.10;;;13.80;99.90;;;;;;5077494;28;20233;-69
2023/08/29 01:04:03;;;;;;;2.80;2.42;;;13.90;99.90;;;;;;5077262;28;20119;-68
2023/08/29 01:06:31;;;;;;;2.80;2.10;;;13.90;99.90;;;;;;5042532;28;20091;-69
2023/08/29 01:08:58;;;;;;;2.42;2.05;;;13.90;99.90;;;;;;5078276;28;20048;-68
2023/08/29 01:11:49;;;;;;;3.90;2.70;;;13.80;99.90;;;;;;5074714;28;20064;-68
2023/08/29 01:14:40;;;;;;;2.55;2.03;;;13.80;99.90;;;;;;5077202;28;20041;-68
2023/08/29 01:17:18;;;;;;;3.95;2.35;;;13.80;99.90;;;;;;5077896;28;20100;-68
2023/08/29 01:19:50;;;;;;;2.55;2.35;;;13.80;99.90;;;;;;5058075;28;20044;-68
2023/08/29 01:22:44;;;;;;;2.85;2.15;;;13.70;99.90;;;;;;5093573;28;20048;-68
2023/08/29 01:25:18;;;;;;;4.53;2.13;;;13.70;99.90;;;;;;5045770;28;20502;-68
2023/08/29 01:27:45;;;;;;;2.75;2.28;;;13.70;99.90;;;;;;5076651;28;20054;-68
2023/08/29 01:30:12;;;;;;;4.10;2.40;;;13.60;99.90;;;;;;5043636;28;20051;-68
2023/08/29 01:32:39;;;;;;;4.00;2.15;;;13.70;99.90;;;;;;5076370;28;20045;-68
2023/08/29 01:35:06;;;;;;;4.78;2.13;;;13.70;99.90;;;;;;5059669;28;20408;-68
2023/08/29 01:37:32;;;;;;;2.95;2.42;;;13.60;99.90;;;;;;5059393;28;20052;-68
2023/08/29 01:39:58;;;;;;;4.13;2.60;;;13.60;99.90;;;;;;5076947;28;20056;-68
2023/08/29 01:42:23;;;;;;;4.43;2.85;;;13.60;99.90;;;;;;5059987;28;20048;-68
2023/08/29 01:44:49;;;;;;;3.17;2.40;;;13.60;99.90;;;;;;5076287;28;20056;-68
2023/08/29 01:47:15;;;;;;;3.55;2.30;;;13.60;99.90;;;;;;5059535;28;20041;-68
2023/08/29 01:49:42;;;;;;;2.42;2.15;;;13.60;99.90;;;;;;5076485;28;20052;-68
2023/08/29 01:52:07;;;;;;;2.45;2.20;;;13.50;99.90;;;;;;5059214;28;20135;-68
2023/08/29 01:54:33;;;;;;;3.90;2.00;;;13.50;99.90;;;;;;5077027;28;20083;-68
2023/08/29 01:57:01;;;;;;;2.40;2.15;;;13.50;99.90;;;;;;5075038;28;20097;-68
2023/08/29 01:59:29;;;;;;;3.20;2.10;;;13.50;99.90;;;;;;5010300;28;20098;-68
2023/08/29 02:01:57;;;;;;;2.03;1.83;;;13.40;99.90;;;;;;5075613;28;20068;-67
2023/08/29 02:04:22;;;;;;;3.33;1.98;;;13.30;99.90;;;;;;5058824;28;20041;-68
2023/08/29 02:06:49;;;;;;;2.65;1.90;;;13.30;99.90;;;;;;5075595;28;20040;-68
2023/08/29 02:09:16;;;;;;;2.05;1.80;;;13.30;99.90;;;;;;5076973;28;20032;-68
2023/08/29 02:11:41;;;;;;;2.95;2.53;;;13.30;99.90;;;;;;5057586;28;20436;-68
2023/08/29 02:14:09;;;;;;;2.72;2.33;;;13.30;99.90;;;;;;5076475;28;20051;-68
2023/08/29 02:16:35;;;;;;;2.03;1.90;;;13.20;99.90;;;;;;5077106;28;20043;-67
2023/08/29 02:19:02;;;;;;;3.63;2.13;;;13.20;99.90;;;;;;5057727;28;20056;-68
2023/08/29 02:21:28;;;;;;;6.38;2.28;;;13.20;99.90;;;;;;5077335;28;20051;-68
2023/08/29 02:23:54;;;;;;;3.55;2.20;;;13.20;99.90;;;;;;5057693;28;20045;-68
2023/08/29 02:26:19;;;;;;;3.10;2.35;;;13.10;99.90;;;;;;5058345;28;20040;-68
2023/08/29 02:28:45;;;;;;;3.15;2.15;;;13.20;99.90;;;;;;5058010;28;20059;-67
2023/08/29 02:31:11;;;;;;;3.15;2.10;;;13.20;99.90;;;;;;5058091;28;20182;-68
2023/08/29 02:33:38;;;;;;;3.13;2.30;;;13.20;99.90;;;;;;5076990;28;20049;-68
2023/08/29 02:36:04;;;;;;;2.95;1.83;;;13.20;99.90;;;;;;5075436;28;20043;-68
2023/08/29 02:38:31;;;;;;;3.20;2.00;;;13.10;99.90;;;;;;5076905;28;20040;-68
2023/08/29 02:40:57;;;;;;;2.40;2.17;;;13.10;99.90;;;;;;5057233;28;20496;-68
2023/08/29 02:43:23;;;;;;;2.20;2.00;;;13.10;99.90;;;;;;5074264;28;20050;-68
2023/08/29 02:45:52;;;;;;;2.00;1.83;;;13.10;99.90;;;;;;5056958;28;20051;-68
2023/08/29 02:48:17;;;;;;;2.00;1.80;;;13.10;99.90;;;;;;5075903;28;20036;-68
2023/08/29 02:50:48;;;;;;;2.17;1.80;;;13.00;99.90;;;;;;5076126;28;20047;-67
2023/08/29 02:53:16;;;;;;;1.67;1.58;;;13.00;99.90;;;;;;5053283;28;20056;-67
2023/08/29 02:55:42;;;;;;;3.53;2.00;;;13.00;99.90;;;;;;5054409;28;20063;-68
2023/08/29 02:58:08;;;;;;;3.40;1.75;;;13.00;99.90;;;;;;5043314;28;20049;-68
2023/08/29 03:00:35;;;;;;;3.25;1.98;;;13.00;99.90;;;;;;5034904;28;20213;-68
2023/08/29 03:03:01;;;;;;;1.95;1.75;;;13.00;99.90;;;;;;5035779;28;20072;-68
2023/08/29 03:05:26;;;;;;;2.17;1.80;;;12.90;99.90;;;;;;5035100;28;20052;-68
2023/08/29 03:07:52;;;;;;;1.88;1.70;;;13.00;99.90;;;;;;5036475;28;20071;-68
2023/08/29 03:10:18;;;;;;;2.30;1.90;;;12.90;99.90;;;;;;5033793;28;20336;-68
2023/08/29 03:12:44;;;;;;;2.65;2.20;;;12.90;99.90;;;;;;5036644;28;20049;-68
2023/08/29 03:15:10;;;;;;;3.70;2.00;;;12.90;99.90;;;;;;5033669;28;20055;-68
2023/08/29 03:17:35;;;;;;;3.22;2.30;;;12.90;99.90;;;;;;5034993;28;20065;-67
2023/08/29 03:20:01;;;;;;;5.22;2.50;;;12.90;99.90;;;;;;5017446;28;20061;-68
2023/08/29 03:22:27;;;;;;;2.30;2.10;;;12.80;99.90;;;;;;5018067;28;20102;-68
2023/08/29 03:24:53;;;;;;;2.25;2.05;;;12.80;99.90;;;;;;5036021;28;20190;-68
2023/08/29 03:27:19;;;;;;;4.22;2.40;;;12.80;99.90;;;;;;5018539;28;20080;-68
2023/08/29 03:29:44;;;;;;;3.35;2.50;;;12.80;99.90;;;;;;5039808;28;20183;-68
2023/08/29 03:32:10;;;;;;;3.22;2.53;;;12.80;99.90;;;;;;5058453;28;20041;-67
2023/08/29 03:34:37;;;;;;;2.60;2.40;;;12.80;99.90;;;;;;5051453;28;20658;-69
2023/08/29 03:37:07;;;;;;;5.65;3.00;;;12.80;99.90;;;;;;5056854;28;20521;-68
2023/08/29 03:39:32;;;;;;;3.08;2.78;;;12.80;99.90;;;;;;5059353;28;20043;-68
2023/08/29 03:41:58;;;;;;;3.63;2.67;;;12.80;99.90;;;;;;5058750;28;20048;-67
2023/08/29 03:44:24;;;;;;;5.30;2.88;;;12.80;99.90;;;;;;5043154;28;20049;-68
2023/08/29 03:46:50;;;;;;;3.10;2.58;;;12.80;99.90;;;;;;5038885;28;20485;-68
2023/08/29 03:49:15;;;;;;;3.85;3.30;;;12.70;99.90;;;;;;5038603;28;20906;-67
2023/08/29 03:51:41;;;;;;;3.63;2.85;;;12.70;99.90;;;;;;5045939;28;20045;-69
2023/08/29 03:54:07;;;;;;;3.58;2.97;;;12.70;99.90;;;;;;5078601;28;20071;-68
2023/08/29 03:56:33;;;;;;;3.92;2.92;;;12.70;99.90;;;;;;5061265;28;20048;-69
2023/08/29 03:59:01;;;;;;;2.75;2.55;;;12.70;99.90;;;;;;5061226;28;20041;-68
2023/08/29 04:01:29;;;;;;;5.35;2.03;;;12.60;99.90;;;;;;5079005;28;20049;-69
2023/08/29 04:03:55;;;;;;;3.45;2.25;;;12.50;99.90;;;;;;5061813;28;20546;-68
2023/08/29 04:06:21;;;;;;;2.47;2.28;;;12.50;99.90;;;;;;5060414;28;20048;-68
2023/08/29 04:08:47;;;;;;;2.20;2.00;;;12.40;99.90;;;;;;5079876;28;20044;-68
2023/08/29 04:11:13;;;;;;;1.73;1.63;;;12.30;99.90;;;;;;5043378;28;20067;-68
2023/08/29 04:13:38;;;;;;;1.50;1.40;;;12.30;99.90;;;;;;5077488;28;20497;-68
2023/08/29 04:16:04;;;;;;;2.80;1.55;;;12.30;99.90;;;;;;5060600;28;20052;-68
2023/08/29 04:18:33;;;;;;;1.80;1.70;;;12.30;99.90;;;;;;5060380;28;20120;-68
2023/08/29 04:20:59;;;;;;;1.65;1.55;;;12.30;99.90;;;;;;5061183;28;20100;-68
2023/08/29 04:23:25;;;;;;;1.63;1.52;;;12.50;99.90;;;;;;5077559;28;20082;-68
2023/08/29 04:25:59;;;;;;;2.75;2.30;;;12.40;99.90;;;;;;5078652;28;20044;-69
2023/08/29 04:28:25;;;;;;;2.38;2.17;;;12.40;99.90;;;;;;5059594;28;20584;-68
2023/08/29 04:30:51;;;;;;;3.05;2.65;;;12.40;99.90;;;;;;5060806;28;20048;-68
2023/08/29 04:33:16;;;;;;;3.42;3.10;;;12.30;99.90;;;;;;5060881;28;20059;-68
2023/08/29 04:35:42;;;;;;;3.10;2.58;;;12.30;99.90;;;;;;5060727;28;20055;-68
2023/08/29 04:38:08;;;;;;;3.17;2.88;;;12.30;99.90;;;;;;5079375;28;20736;-68
2023/08/29 04:40:35;;;;;;;6.20;2.47;;;12.30;99.90;;;;;;5077915;28;20049;-68
2023/08/29 04:43:01;;;;;;;4.45;2.80;;;12.30;99.90;;;;;;5061540;28;20084;-68
2023/08/29 04:45:27;;;;;;;2.88;2.60;;;12.30;99.90;;;;;;5060202;28;20948;-68
2023/08/29 04:47:53;;;;;;;2.97;2.75;;;12.30;99.90;;;;;;5079136;28;20059;-68
2023/08/29 04:50:20;;;;;;;2.80;2.30;;;12.20;99.90;;;;;;5078609;28;20435;-67
2023/08/29 04:52:46;;;;;;;2.10;1.77;;;12.20;99.90;;;;;;5078249;28;20064;-67
2023/08/29 04:55:12;;;;;;;1.80;1.70;;;12.20;99.90;;;;;;5061488;28;20049;-68
2023/08/29 04:57:38;;;;;;;2.50;2.30;;;12.10;99.90;;;;;;5043351;28;20052;-67
2023/08/29 05:00:05;;;;;;;2.40;2.20;;;12.10;99.90;;;;;;5077481;28;20519;-66
2023/08/29 05:02:32;;;;;;;2.20;2.03;;;12.00;99.90;;;;;;5077389;28;20049;-66
2023/08/29 05:04:57;;;;;;;2.92;1.90;;;11.90;99.90;;;;;;5060821;28;20114;-66
2023/08/29 05:07:23;;;;;;;4.68;1.90;;;11.90;99.90;;;;;;5043361;28;20052;-66
2023/08/29 05:09:49;;;;;;;1.88;1.77;;;11.90;99.90;;;;;;5025629;28;20585;-66
2023/08/29 05:12:16;;;;;;;1.90;1.73;;;11.80;99.90;;;;;;5050090;28;20111;-69
2023/08/29 05:14:42;;;;;;;2.35;1.70;;;11.80;99.90;;;;;;5077262;28;20036;-66
2023/08/29 05:17:09;;;;;;;2.08;1.60;;;11.90;99.90;;;;;;5060864;28;20059;-66
2023/08/29 05:19:35;;;;;;;1.60;1.50;;;11.90;99.90;;;;;;5077389;28;20059;-66
2023/08/29 05:22:01;;;;;;;1.67;1.58;;;12.00;99.90;;;;;;5078755;28;20049;-68
2023/08/29 05:24:26;;;;;;;1.55;1.35;;;12.00;99.90;;;;;;5077629;28;20036;-67
2023/08/29 05:26:52;;;;;;;2.10;1.90;;;11.90;99.90;;;;;;5077665;28;20070;-67
2023/08/29 05:29:18;;;;;;;1.83;1.73;;;12.00;99.90;;;;;;5078536;28;20076;-66
2023/08/29 05:31:44;;;;;;;2.45;2.03;;;12.10;99.90;;;;;;5076568;28;20071;-66
2023/08/29 05:34:09;;;;;;;1.90;1.80;;;12.10;99.90;;;;;;5060403;28;20047;-67
2023/08/29 05:36:35;;;;;;;2.17;1.98;;;12.10;99.90;;;;;;5076689;28;20048;-66
2023/08/29 05:39:01;;;;;;;2.58;1.98;;;12.10;99.90;;;;;;5077815;28;20047;-66
2023/08/29 05:41:28;;;;;;;2.20;1.70;;;12.20;99.90;;;;;;5059069;28;20052;-65
2023/08/29 05:43:54;;;;;;;3.03;2.15;;;12.20;99.90;;;;;;5059630;28;20082;-66
2023/08/29 05:46:20;;;;;;;2.20;2.00;;;12.30;99.90;;;;;;5076099;28;20068;-66
2023/08/29 05:48:46;;;;;;;3.10;2.20;;;12.30;99.90;;;;;;5058363;28;20060;-67
2023/08/29 05:51:12;;;;;;;2.90;2.15;;;12.30;99.90;;;;;;5042232;28;20056;-66
2023/08/29 05:53:38;;;;;;;2.42;2.22;;;12.30;99.90;;;;;;5054437;28;20088;-66
2023/08/29 05:56:04;;;;;;;2.90;2.60;;;12.30;99.90;;;;;;5057224;28;20056;-67
2023/08/29 05:58:30;;;;;;;3.70;3.00;;;12.40;99.90;;;;;;5056224;28;20045;-66
2023/08/29 06:00:55;;;;;;;2.60;2.40;;;12.40;99.90;;;;;;5048629;28;20037;-67
2023/08/29 06:03:22;;;;;;;2.40;2.20;;;12.40;99.90;;;;;;5037534;28;20489;-67
2023/08/29 06:05:51;;;;;;;4.63;2.30;;;12.50;99.90;;;;;;5036650;28;20053;-68
2023/08/29 06:08:18;;;;;;;2.63;1.90;;;12.40;99.90;;;;;;5036807;28;20056;-69
2023/08/29 06:10:44;;;;;;;2.75;1.90;;;12.40;99.90;;;;;;5014909;28;20050;-69
2023/08/29 06:13:10;;;;;;;2.03;1.80;;;12.40;99.90;;;;;;5034608;28;20527;-68
2023/08/29 06:15:37;;;;;;;2.38;1.73;;;12.40;99.90;;;;;;5030216;28;20045;-69
2023/08/29 06:18:04;;;;;;;5.10;1.80;;;12.50;99.90;;;;;;5034656;28;20535;-69
2023/08/29 06:20:31;;;;;;;3.42;2.00;;;12.60;99.90;;;;;;5036216;28;20061;-70
2023/08/29 06:22:59;;;;;;;3.25;2.70;;;12.60;99.90;;;;;;5035897;28;20097;-70
2023/08/29 06:25:27;;;;;;;2.72;2.53;;;12.70;99.90;;;;;;5036079;28;20100;-71
2023/08/29 06:27:53;;;;;;;3.08;2.53;;;12.80;99.90;;;;;;5018242;28;20046;-69
2023/08/29 06:30:19;;;;;;;4.78;2.95;;;12.80;99.90;;;;;;5037096;28;21001;-70
2023/08/29 06:32:45;;;;;;;3.03;2.55;;;12.90;99.90;;;;;;5035701;28;20101;-69
2023/08/29 06:35:11;;;;;;;3.00;2.05;;;12.90;99.90;;;;;;5055504;28;20038;-69
2023/08/29 06:37:37;;;;;;;2.58;2.38;;;12.90;99.90;;;;;;5046671;28;20036;-70
2023/08/29 06:40:07;;;;;;;3.90;2.10;;;12.90;99.90;;;;;;5054538;28;20487;-69
2023/08/29 06:42:32;;;;;;;3.53;2.28;;;13.00;99.90;;;;;;5056904;28;20060;-68
2023/08/29 06:44:58;;;;;;;2.42;2.13;;;13.00;99.90;;;;;;5053813;28;20053;-68
2023/08/29 06:47:24;;;;;;;3.55;2.60;;;13.10;99.90;;;;;;5042765;28;20116;-68
2023/08/29 06:49:52;;;;;;;3.13;2.50;;;13.20;99.90;;;;;;5035949;28;20464;-69
2023/08/29 06:52:18;;;;;;;3.30;2.97;;;13.30;99.90;;;;;;5053206;28;20064;-68
2023/08/29 06:54:45;;;;;;;3.75;2.97;;;13.40;99.90;;;;;;5058809;28;20048;-69
2023/08/29 06:57:11;;;;;;;5.22;3.00;;;13.50;99.90;;;;;;5041123;28;20044;-68
2023/08/29 06:59:37;;;;;;;7.25;3.30;;;13.60;99.90;;;;;;5059363;28;20078;-69
2023/08/29 07:02:03;;;;;;;4.40;3.00;;;13.60;99.90;;;;;;5057408;28;20135;-69
2023/08/29 07:04:30;;;;;;;7.05;2.90;;;13.70;99.90;;;;;;5058728;28;20048;-69
2023/08/29 07:06:55;;;;;;;5.40;3.15;;;13.80;99.90;;;;;;5075425;28;20052;-68
2023/08/29 07:09:21;;;;;;;4.05;3.00;;;13.80;99.90;;;;;;5058442;28;20491;-70
2023/08/29 07:11:47;;;;;;;7.40;3.35;;;13.90;99.90;;;;;;5058094;28;20052;-69
2023/08/29 07:14:13;;;;;;;3.75;3.00;;;13.90;99.90;;;;;;5057748;28;20040;-68
2023/08/29 07:16:39;;;;;;;3.80;2.80;;;13.90;99.90;;;;;;5057103;28;20132;-69
2023/08/29 07:19:05;;;;;;;6.85;3.10;;;14.00;99.90;;;;;;5040646;28;20110;-69
2023/08/29 07:21:31;;;;;;;4.78;2.95;;;14.10;99.90;;;;;;5076156;28;20048;-69
2023/08/29 07:23:57;;;;;;;3.53;3.05;;;14.10;99.90;;;;;;5075084;28;20099;-69
2023/08/29 07:26:22;;;;;;;3.75;3.35;;;14.10;99.90;;;;;;5075889;28;20037;-69
2023/08/29 07:28:48;;;;;;;4.60;3.17;;;14.20;99.90;;;;;;5074158;28;20083;-69
2023/08/29 07:31:18;;;;;;;4.35;2.80;;;14.20;99.90;;;;;;5057016;28;20040;-69
2023/08/29 07:33:44;;;;;;;4.97;2.70;;;14.30;99.90;;;;;;5058796;28;20135;-69
2023/08/29 07:36:10;;;;;;;6.18;3.30;;;14.50;99.90;;;;;;5074988;28;20087;-68
2023/08/29 07:38:36;;;;;;;5.43;2.97;;;14.50;99.90;;;;;;5076658;28;20048;-70
2023/08/29 07:41:02;;;;;;;3.78;2.65;;;14.60;99.90;;;;;;5075129;28;20040;-69
2023/08/29 07:43:28;;;;;;;3.13;2.50;;;14.60;99.90;;;;;;5076597;28;20532;-69
2023/08/29 07:45:54;;;;;;;5.05;3.08;;;14.70;99.90;;;;;;5057828;28;20128;-69
2023/08/29 07:48:20;;;;;;;4.57;2.70;;;14.70;99.90;;;;;;5057614;28;20048;-68
2023/08/29 07:50:46;;;;;;;6.28;2.85;;;14.80;99.90;;;;;;5076620;28;20048;-69
2023/08/29 07:53:12;;;;;;;3.40;2.47;;;14.90;99.90;;;;;;5053450;28;20112;-68
2023/08/29 07:55:40;;;;;;;3.38;2.35;;;14.90;99.90;;;;;;5055001;28;20053;-69
2023/08/29 07:58:07;;;;;;;5.28;2.65;;;14.90;99.90;;;;;;5055042;28;20053;-69
2023/08/29 08:00:32;;;;;;;5.57;2.10;;;15.00;99.90;;;;;;5054920;28;20412;-69
2023/08/29 08:03:00;;;;;;;4.93;2.50;;;15.10;99.90;;;;;;5051902;28;20045;-69
2023/08/29 08:05:26;;;;;;;2.80;2.22;;;15.20;99.90;;;;;;5042802;28;20056;-70
2023/08/29 08:07:52;;;;;;;3.63;2.42;;;15.20;99.90;;;;;;5051308;28;20048;-69
2023/08/29 08:10:19;;;;;;;7.10;2.13;;;15.30;99.90;;;;;;5054258;28;20097;-69
2023/08/29 08:12:47;;;;;;;2.88;2.25;;;15.30;99.90;;;;;;5054939;28;20098;-69
2023/08/29 08:15:14;;;;;;;3.38;2.25;;;15.40;99.90;;;;;;5056664;28;20072;-69
2023/08/29 08:17:41;;;;;;;5.95;2.30;;;15.50;99.90;;;;;;5041512;28;20041;-69
2023/08/29 08:20:10;;;;;;;3.30;2.10;;;15.50;99.90;;;;;;5058755;28;20056;-71
2023/08/29 08:22:40;;;;;;;2.90;1.63;;;15.60;99.90;;;;;;5057487;28;20045;-71
2023/08/29 08:25:07;;;;;;;3.58;1.42;;;15.70;99.90;;;;;;5041832;28;20061;-72
2023/08/29 08:27:34;;;;;;;1.65;1.55;;;15.80;99.90;;;;;;5056842;28;20584;-70
2023/08/29 08:30:00;;;;;;;3.00;2.63;;;15.90;99.90;;;;;;5059484;28;20126;-71
2023/08/29 08:32:26;;;;;;;6.05;2.55;;;16.10;99.90;;;;;;5053838;28;20045;-70
2023/08/29 08:34:53;;;;;;;4.30;2.50;;;16.10;99.90;;;;;;5032078;28;20091;-71
2023/08/29 08:37:20;;;;;;;3.42;2.63;;;16.10;99.90;;;;;;5046224;28;20076;-70
2023/08/29 08:39:45;;;;;;;3.50;2.58;;;16.10;99.90;;;;;;5032142;28;20052;-70
2023/08/29 08:42:13;;;;;;;3.28;2.78;;;16.20;99.90;;;;;;5059133;28;20464;-70
2023/08/29 08:44:40;;;;;;;4.80;2.92;;;16.20;99.90;;;;;;5057277;28;20080;-70
2023/08/29 08:47:06;;;;;;;5.13;3.10;;;16.30;99.90;;;;;;5053862;28;20045;-71
2023/08/29 08:49:32;;;;;;;4.40;2.65;;;16.30;99.90;;;;;;5049786;28;20424;-71
2023/08/29 08:51:59;;;;;;;3.97;2.65;;;16.40;99.90;;;;;;5063403;28;20139;-72
2023/08/29 08:54:25;;;;;;;4.68;2.55;;;16.50;99.90;;;;;;5059843;28;20059;-73
2023/08/29 08:56:57;;;;;;;3.05;2.45;;;16.50;99.90;;;;;;5077975;28;20052;-70
2023/08/29 08:59:25;;;;;;;2.42;2.05;;;16.60;99.90;;;;;;5077208;28;20378;-70
2023/08/29 09:01:54;;;;;;;3.72;2.50;;;16.60;99.90;;;;;;5058933;28;20086;-69
2023/08/29 09:04:22;;;;;;;2.10;1.80;;;16.60;99.90;;;;;;5078426;28;20046;-70
2023/08/29 09:06:49;;;;;;;5.20;1.73;;;16.70;99.90;;;;;;5077772;28;20059;-72
2023/08/29 09:09:19;;;;;;;3.05;1.58;;;16.70;99.90;;;;;;5060709;28;20051;-71
2023/08/29 09:11:58;;;;;;;3.35;1.58;;;16.80;99.90;;;;;;5043784;28;20052;-70
2023/08/29 09:14:25;;;;;;;3.53;1.60;;;16.80;99.90;;;;;;5077684;28;20056;-69
2023/08/29 09:16:56;;;;;;;2.58;1.60;;;16.80;99.90;;;;;;5044249;28;20141;-69
2023/08/29 09:19:23;;;;;;;3.38;1.98;;;16.80;99.90;;;;;;5077647;28;20055;-69
2023/08/29 09:21:50;;;;;;;2.60;1.77;;;16.90;99.90;;;;;;5078714;28;20051;-71
2023/08/29 09:24:42;;;;;;;5.90;3.05;;;16.90;99.90;;;;;;5076991;28;20048;-70
2023/08/29 09:27:09;;;;;;;5.43;2.20;;;17.00;99.90;;;;;;5074405;28;20056;-70
2023/08/29 09:29:35;;;;;;;5.35;2.08;;;17.10;99.90;;;;;;5060945;28;20052;-69
2023/08/29 09:32:13;;;;;;;2.67;2.13;;;17.10;99.90;;;;;;5058827;28;20063;-70
2023/08/29 09:34:39;;;;;;;4.00;2.10;;;17.10;99.90;;;;;;5058541;28;20052;-69
2023/08/29 09:37:06;;;;;;;4.72;2.70;;;17.20;99.90;;;;;;5059290;28;20044;-70
2023/08/29 09:39:32;;;;;;;2.72;1.88;;;17.10;99.90;;;;;;5077727;28;20048;-71
2023/08/29 09:42:04;;;;;;;4.20;2.30;;;17.10;99.90;;;;;;5060037;28;20647;-71
2023/08/29 09:44:38;;;;;;;2.78;1.88;;;17.20;99.90;;;;;;5042344;28;20080;-71
2023/08/29 09:47:09;;;;;;;3.38;1.92;;;17.20;99.90;;;;;;5078379;28;20560;-70
2023/08/29 09:49:47;;;;;;;4.82;1.80;;;17.40;99.90;;;;;;5041873;28;20510;-74
2023/08/29 09:52:14;;;;;;;4.95;1.70;;;17.30;99.90;;;;;;5059595;28;20056;-76
2023/08/29 09:54:52;;;;;;;1.48;1.00;;;17.40;99.90;;;;;;5078069;28;20049;-77
2023/08/29 09:57:23;;;;;;;2.20;1.10;;;17.50;99.90;;;;;;5076915;28;20052;-71
2023/08/29 09:59:51;;;;;;;2.20;1.20;;;17.50;99.90;;;;;;5043608;28;20106;-74
2023/08/29 10:02:20;;;;;;;2.42;1.20;;;17.70;99.90;;;;;;5058752;28;20047;-74
2023/08/29 10:05:03;;;;;;;2.83;1.10;;;17.70;99.90;;;;;;5077619;28;20053;-72
2023/08/29 10:07:37;;;;;;;4.05;1.10;;;17.70;99.90;;;;;;5077519;28;20052;-70
2023/08/29 10:10:06;;;;;;;1.20;1.10;;;17.80;99.90;;;;;;5042146;28;20048;-73
2023/08/29 10:12:34;;;;;;;2.00;1.00;;;17.80;99.90;;;;;;5078031;28;20052;-72
2023/08/29 10:15:01;;;;;;;1.92;1.00;;;17.80;99.90;;;;;;5041218;28;20621;-72
2023/08/29 10:17:26;;;;;;;2.35;1.20;;;17.90;99.90;;;;;;5077368;28;20040;-67
2023/08/29 10:19:57;;;;;;;1.15;0.98;;;17.90;99.90;;;;;;5074443;28;20052;-68
2023/08/29 10:22:24;;;;;;;4.47;1.10;;;18.00;99.90;;;;;;5058981;28;20057;-66
2023/08/29 10:24:51;;;;;;;1.48;1.00;;;18.00;99.90;;;;;;5059047;28;20063;-65
2023/08/29 10:27:17;;;;;;;2.78;1.20;;;17.90;99.90;;;;;;5057655;28;20044;-67
2023/08/29 10:29:43;;;;;;;1.95;1.10;;;17.90;99.90;;;;;;5076734;28;20123;-68
2023/08/29 10:32:09;;;;;;;1.58;1.25;;;18.10;99.90;;;;;;5075702;28;20079;-67
2023/08/29 10:34:36;;;;;;;1.65;0.90;;;18.30;99.90;;;;;;5042251;28;20072;-68
2023/08/29 10:37:03;;;;;;;1.90;1.20;;;18.30;99.90;;;;;;5075849;28;20074;-67
2023/08/29 10:39:30;;;;;;;2.45;1.20;;;18.30;99.90;;;;;;5076738;28;20040;-67
2023/08/29 10:41:56;;;;;;;2.70;1.40;;;18.40;99.90;;;;;;5059165;28;20048;-68
2023/08/29 10:44:43;;;;;;;1.30;1.20;;;18.40;99.90;;;;;;5057439;28;20100;-67
2023/08/29 10:47:23;;;;;;;1.90;1.25;;;18.50;99.90;;;;;;5058628;28;20045;-67
2023/08/29 10:49:57;;;;;;;2.78;1.30;;;18.60;99.90;;;;;;5075791;28;20052;-67
2023/08/29 10:52:22;;;;;;;1.63;1.48;;;18.70;99.90;;;;;;5058020;28;20068;-68
2023/08/29 10:55:01;;;;;;;4.35;1.10;;;18.70;99.90;;;;;;5058928;28;20138;-68
2023/08/29 10:57:29;;;;;;;2.95;1.20;;;18.70;99.90;;;;;;5040579;28;20045;-67
2023/08/29 10:59:57;;;;;;;3.35;1.00;;;18.70;99.90;;;;;;5056698;28;20160;-67
2023/08/29 11:02:30;;;;;;;1.15;1.05;;;18.80;99.90;;;;;;5066103;28;20594;-66
2023/08/29 11:05:05;;;;;;;1.55;1.10;;;18.80;99.90;;;;;;5076419;28;20090;-66
2023/08/29 11:07:32;;;;;;;1.83;1.17;;;18.90;99.90;;;;;;5021877;28;20123;-67
2023/08/29 11:10:20;;;;;;;1.42;1.33;;;18.90;99.90;;;;;;5061092;28;20075;-67
2023/08/29 11:13:06;;;;;;;1.10;1.00;;;18.90;99.90;;;;;;5075565;28;20055;-67
2023/08/29 11:15:47;;;;;;;3.47;1.40;;;18.90;99.90;;;;;;5056844;28;20048;-66
2023/08/29 11:18:32;;;;;;;1.30;0.90;;;18.90;99.90;;;;;;5057708;28;20108;-64
2023/08/29 11:21:07;;;;;;;2.30;1.00;;;18.90;99.90;;;;;;5076902;28;20082;-65
2023/08/29 11:23:39;;;;;;;4.43;1.27;;;18.90;99.90;;;;;;5057476;28;20043;-67
2023/08/29 11:26:05;;;;;;;4.55;1.17;;;18.90;99.90;;;;;;5058049;28;20043;-67
2023/08/29 11:28:33;;;;;;;6.20;1.05;;;18.90;99.90;;;;;;5075812;28;20052;-69
2023/08/29 11:30:59;;;;;;;3.72;1.00;;;18.90;99.90;;;;;;5076199;28;20142;-73
2023/08/29 11:33:33;;;;;;;1.42;0.90;;;18.80;99.90;;;;;;5042335;28;20087;-70
2023/08/29 11:36:01;;;;;;;3.72;1.70;;;18.80;99.90;;;;;;5075451;28;20052;-69
2023/08/29 11:38:29;;;;;;;3.40;1.70;;;18.70;99.90;;;;;;5058853;28;20131;-67
2023/08/29 11:40:58;;;;;;;3.15;1.77;;;18.60;99.90;;;;;;5040343;28;20098;-66
2023/08/29 11:43:25;;;;;;;3.35;1.83;;;18.60;99.90;;;;;;5073957;28;20111;-65
2023/08/29 11:45:57;;;;;;;3.17;1.80;;;18.50;99.90;;;;;;5076040;28;20044;-66
2023/08/29 11:48:28;;;;;;;2.10;1.63;;;18.50;99.90;;;;;;5057015;28;20045;-65
2023/08/29 11:51:01;;;;;;;1.85;1.70;;;18.40;99.90;;;;;;5042232;28;20049;-65
2023/08/29 11:53:29;;;;;;;2.90;1.60;;;18.30;99.90;;;;;;5059478;28;20092;-65
2023/08/29 11:55:55;;;;;;;3.47;1.48;;;18.30;99.90;;;;;;5060541;28;20101;-66
2023/08/29 11:58:33;;;;;;;7.82;1.70;;;18.30;99.90;;;;;;5059437;28;20051;-66
2023/08/29 12:01:10;;;;;;;5.90;1.73;;;18.30;99.90;;;;;;5060263;28;20044;-66
2023/08/29 12:03:37;;;;;;;4.53;1.95;;;18.30;99.90;;;;;;5060730;28;20055;-66
2023/08/29 12:06:09;;;;;;;2.85;1.92;;;18.20;99.90;;;;;;5042554;28;20055;-65
2023/08/29 12:08:42;;;;;;;2.45;1.90;;;18.20;99.90;;;;;;5061250;28;20454;-66
2023/08/29 12:11:10;;;;;;;2.00;1.60;;;18.20;99.90;;;;;;5077696;28;20056;-65
2023/08/29 12:13:37;;;;;;;4.85;1.67;;;18.20;99.90;;;;;;5060971;28;20048;-65
2023/08/29 12:16:04;;;;;;;3.72;2.03;;;18.10;99.90;;;;;;5078540;28;20041;-67
2023/08/29 12:18:32;;;;;;;1.50;1.40;;;18.10;99.90;;;;;;5077820;28;20054;-66
2023/08/29 12:21:14;;;;;;;3.05;1.65;;;18.10;99.90;;;;;;5079517;28;20431;-66
2023/08/29 12:23:40;;;;;;;2.33;1.65;;;18.10;99.90;;;;;;5077454;28;20250;-65
2023/08/29 12:26:06;;;;;;;2.67;1.80;;;18.10;99.90;;;;;;5060080;28;20049;-67
2023/08/29 12:28:31;;;;;;;4.47;1.67;;;18.10;99.90;;;;;;5059634;28;20037;-66
2023/08/29 12:30:57;;;;;;;2.28;1.55;;;18.20;99.90;;;;;;5060101;28;20145;-66
2023/08/29 12:33:23;;;;;;;1.85;1.75;;;18.20;99.90;;;;;;5043906;28;20059;-67
2023/08/29 12:35:50;;;;;;;2.47;1.85;;;18.20;99.90;;;;;;5042580;28;20048;-69
2023/08/29 12:38:16;;;;;;;4.07;1.80;;;18.20;99.90;;;;;;5058663;28;20079;-67
2023/08/29 12:40:44;;;;;;;3.40;1.70;;;18.30;99.90;;;;;;5076537;28;20866;-66
2023/08/29 12:43:11;;;;;;;3.40;1.83;;;18.30;99.90;;;;;;5077821;28;20095;-66
2023/08/29 12:45:37;;;;;;;3.63;1.90;;;18.30;99.90;;;;;;5059279;28;20044;-67
2023/08/29 12:48:03;;;;;;;2.75;2.10;;;18.30;99.90;;;;;;5077430;28;20143;-66
2023/08/29 12:50:30;;;;;;;2.55;2.03;;;18.30;99.90;;;;;;5059804;28;20557;-65